Lewisville, Texas
Current Conditions -  °F | °C
As of 7:53 PM on Wednesday 26 Nov 2014 (Local Time) from KDFW Reporting Station
Clear Clear  
Wind Chill: 54°   Ceiling: Unl
Heat Index: 54°   Visibility: 10mi
Dew Point: 35°   Wind: 10mph
Humidity: 49%   Direction: 310°NW
Pressure: 30.3"   Gusts: NA
Location:  33.05°N, 96.99°W
Report Text: KDFW 270153Z 31009KT 10SM CLR 12/02 A3030 RMK AO2 SLP259 T01220017
Loading
Personal Weather Stations






























Interactive Weather Map New forecast layout! Learn more

10-Day Weather Forecast

Advertisements
Track Severe Weather on mobile